createdAt,value
2023-02-26T00:02:11.177Z,101859.56
2023-02-26T00:07:13.868Z,101860.03
2023-02-26T00:12:16.922Z,101866.31
2023-02-26T00:17:31.344Z,101891.50
2023-02-26T00:22:34.284Z,101884.41
2023-02-26T00:27:37.365Z,101885.03
2023-02-26T00:32:40.610Z,101903.78
2023-02-26T00:37:55.139Z,101906.47
2023-02-26T00:42:58.162Z,101912.72
2023-02-26T00:48:19.279Z,101919.63
2023-02-26T00:54:14.902Z,101923.41
2023-02-26T00:59:18.485Z,101923.88
2023-02-26T01:04:23.457Z,101942.59
2023-02-26T01:09:34.420Z,101946.13
2023-02-26T01:14:39.544Z,101938.28
2023-02-26T01:19:55.258Z,101949.41
2023-02-26T01:25:08.183Z,101965.16
2023-02-26T01:30:10.892Z,101965.38
2023-02-26T01:35:40.881Z,101970.91
2023-02-26T01:41:02.301Z,101976.25
2023-02-26T01:46:25.504Z,102001.88
2023-02-26T01:51:49.512Z,102011.97
2023-02-26T01:57:09.956Z,102018.97
2023-02-26T02:02:14.195Z,102027.75
2023-02-26T02:07:19.024Z,102023.06
2023-02-26T02:12:37.483Z,102042.28
2023-02-26T02:17:56.855Z,102051.00
2023-02-26T02:23:11.307Z,102053.69
2023-02-26T02:28:36.964Z,102060.78
2023-02-26T02:34:06.130Z,102079.13
2023-02-26T02:39:23.867Z,102044.75
2023-02-26T02:44:27.927Z,102079.19
2023-02-26T02:50:05.841Z,102070.94
2023-02-26T02:55:20.630Z,102072.25
2023-02-26T03:00:24.582Z,102079.41
2023-02-26T03:12:05.023Z,102095.72
2023-02-26T03:17:41.840Z,102106.94
2023-02-26T03:22:57.689Z,102115.88
2023-02-26T03:28:21.551Z,102106.28
2023-02-26T03:33:47.952Z,102118.38
2023-02-26T03:39:02.045Z,102107.84
2023-02-26T03:44:28.648Z,102107.38
2023-02-26T03:49:35.243Z,102112.94
2023-02-26T03:54:47.984Z,102111.34
2023-02-26T04:00:10.996Z,102112.00
2023-02-26T04:05:23.514Z,102125.16
2023-02-26T04:10:33.821Z,102117.94
2023-02-26T04:15:36.764Z,102112.28
2023-02-26T04:20:40.075Z,102121.91
2023-02-26T04:25:42.886Z,102117.81
2023-02-26T04:30:47.133Z,102116.69
2023-02-26T04:35:50.908Z,102117.06
2023-02-26T04:40:53.914Z,102123.06
2023-02-26T04:45:57.182Z,102125.22
2023-02-26T04:50:59.967Z,102126.91
2023-02-26T04:56:02.851Z,102131.34
2023-02-26T05:01:06.199Z,102119.41
2023-02-26T05:06:09.066Z,102133.63
2023-02-26T05:11:12.864Z,102139.13
2023-02-26T05:16:15.625Z,102138.56
2023-02-26T05:21:18.711Z,102133.94
2023-02-26T05:26:21.584Z,102094.03
2023-02-26T05:31:24.341Z,102099.88
2023-02-26T05:36:27.744Z,102139.53
2023-02-26T05:41:30.613Z,102129.75
2023-02-26T05:46:33.372Z,102135.38
2023-02-26T05:51:36.186Z,102148.00
2023-02-26T05:56:38.874Z,102150.81
2023-02-26T06:01:43.081Z,102150.84
2023-02-26T06:06:45.836Z,102135.66
2023-02-26T06:11:48.583Z,102133.63
2023-02-26T06:16:51.213Z,102145.53
2023-02-26T06:21:54.137Z,102160.44
2023-02-26T06:26:56.968Z,102139.75
2023-02-26T06:32:00.076Z,102153.34
2023-02-26T06:37:03.077Z,102149.56
2023-02-26T06:42:06.052Z,102128.97
2023-02-26T06:47:08.796Z,102149.09
2023-02-26T06:52:11.548Z,102152.03
2023-02-26T06:57:17.250Z,102143.03
2023-02-26T07:02:22.576Z,102157.84
2023-02-26T07:07:25.322Z,102139.91
2023-02-26T07:12:31.143Z,102144.63
2023-02-26T07:17:34.570Z,102124.31
2023-02-26T07:22:38.421Z,102139.75
2023-02-26T07:27:43.722Z,102133.47
2023-02-26T07:32:46.827Z,102134.94
2023-02-26T07:37:49.502Z,102148.69
2023-02-26T07:42:52.306Z,102151.66
2023-02-26T07:47:55.258Z,102153.13
2023-02-26T07:52:57.991Z,102145.47
2023-02-26T07:58:00.920Z,102125.16
2023-02-26T08:03:03.704Z,102152.16
2023-02-26T08:08:06.489Z,102157.41
2023-02-26T08:13:09.306Z,102142.94
2023-02-26T08:18:12.503Z,102155.09
2023-02-26T08:23:15.209Z,102142.59
2023-02-26T08:28:17.994Z,102131.53
2023-02-26T08:33:20.834Z,102123.31
2023-02-26T08:38:23.574Z,102149.88
2023-02-26T08:43:26.463Z,102137.00
2023-02-26T08:48:29.320Z,102151.91
2023-02-26T08:53:32.354Z,102149.22
2023-02-26T08:58:35.170Z,102147.22
2023-02-26T09:03:37.909Z,102150.34
2023-02-26T09:08:40.583Z,102147.03
2023-02-26T09:13:43.367Z,102143.97
2023-02-26T09:18:46.130Z,102140.91
2023-02-26T09:23:48.977Z,102146.19
2023-02-26T09:28:51.901Z,102135.22
2023-02-26T09:33:54.700Z,102148.25
2023-02-26T09:38:57.369Z,102156.16
2023-02-26T09:44:25.152Z,102153.63
2023-02-26T09:49:31.694Z,102137.19
2023-02-26T09:54:42.290Z,102138.22
2023-02-26T09:59:45.057Z,102145.97
2023-02-26T10:05:12.578Z,102141.03
2023-02-26T10:10:40.028Z,102125.44
2023-02-26T10:15:43.962Z,102139.25
2023-02-26T10:21:12.964Z,102148.22
2023-02-26T10:26:45.102Z,102154.63
2023-02-26T10:32:20.149Z,102142.22
2023-02-26T10:37:44.725Z,102149.34
2023-02-26T10:43:28.318Z,102143.09
2023-02-26T10:48:38.336Z,102142.97
2023-02-26T10:53:43.731Z,102143.28
2023-02-26T10:58:46.833Z,102143.75
2023-02-26T11:03:54.691Z,102139.22
2023-02-26T11:08:59.337Z,102148.47
2023-02-26T11:14:02.699Z,102158.63
2023-02-26T11:19:06.290Z,102141.81
2023-02-26T11:24:24.550Z,102146.91
2023-02-26T11:29:27.298Z,102152.13
2023-02-26T11:34:30.601Z,102152.81
2023-02-26T11:39:39.530Z,102166.44
2023-02-26T11:44:46.482Z,102167.25
2023-02-26T11:49:56.064Z,102169.47
2023-02-26T11:55:04.230Z,102156.78
2023-02-26T12:00:19.623Z,102159.19
2023-02-26T12:05:22.983Z,102176.81
2023-02-26T12:10:55.336Z,102180.53
2023-02-26T12:16:04.767Z,102188.84
2023-02-26T12:21:13.492Z,102177.94
2023-02-26T12:26:35.849Z,102180.13
2023-02-26T12:32:00.198Z,102183.91
2023-02-26T12:37:16.384Z,102167.66
2023-02-26T12:42:44.287Z,102179.16
2023-02-26T12:48:11.173Z,102172.63
2023-02-26T12:53:35.682Z,102164.13
2023-02-26T12:59:01.225Z,102167.59
2023-02-26T13:04:34.924Z,102169.28
2023-02-26T13:09:56.457Z,102169.34
2023-02-26T13:15:26.605Z,102192.06
2023-02-26T13:20:29.854Z,102178.88
2023-02-26T13:25:39.164Z,102179.38
2023-02-26T13:30:48.579Z,102170.94
2023-02-26T13:35:53.363Z,102169.94
2023-02-26T13:41:13.197Z,102167.88
2023-02-26T13:46:18.964Z,102156.88
2023-02-26T13:51:41.060Z,102157.66
2023-02-26T13:57:08.218Z,102160.22
2023-02-26T14:02:19.798Z,102151.72
2023-02-26T14:07:54.109Z,102151.28
2023-02-26T14:13:11.510Z,102145.44
2023-02-26T14:18:27.829Z,102127.78
2023-02-26T14:23:37.838Z,102139.59
2023-02-26T14:28:49.748Z,102131.97
2023-02-26T14:34:14.226Z,102124.75
2023-02-26T14:39:36.452Z,102118.13
2023-02-26T14:44:43.685Z,102133.28
2023-02-26T14:49:59.721Z,102092.47
2023-02-26T14:55:24.006Z,102118.78
2023-02-26T15:00:45.852Z,102104.59
2023-02-26T15:06:20.012Z,102080.94
2023-02-26T15:11:51.359Z,102113.66
2023-02-26T15:17:15.730Z,102109.13
2023-02-26T15:22:54.642Z,102098.22
2023-02-26T15:27:59.462Z,102101.13
2023-02-26T15:33:05.840Z,102104.28
2023-02-26T15:38:09.895Z,102095.28
2023-02-26T15:43:26.232Z,102081.59
2023-02-26T15:48:42.665Z,102083.97
2023-02-26T15:53:48.449Z,102090.72
2023-02-26T15:58:58.464Z,102089.63
2023-02-26T16:04:02.958Z,102078.63
2023-02-26T16:09:07.737Z,102080.00
2023-02-26T16:14:22.386Z,102050.50
2023-02-26T16:19:39.690Z,102044.78
2023-02-26T16:24:42.945Z,102078.34
2023-02-26T16:29:52.135Z,102025.22
2023-02-26T16:34:57.774Z,102065.56
2023-02-26T16:40:20.610Z,102050.94
2023-02-26T16:45:35.358Z,102065.56
2023-02-26T16:50:38.718Z,102008.88
2023-02-26T16:55:42.343Z,102046.06
2023-02-26T17:00:46.750Z,102036.69
2023-02-26T17:06:03.026Z,102038.94
2023-02-26T17:11:10.652Z,102038.06
2023-02-26T17:16:14.419Z,102033.91
2023-02-26T17:21:17.940Z,102026.97
2023-02-26T17:26:20.906Z,102020.66
2023-02-26T17:31:23.699Z,102013.44
2023-02-26T17:36:27.058Z,102008.88
2023-02-26T17:41:30.910Z,102008.56
2023-02-26T17:46:33.567Z,101998.88
2023-02-26T17:51:36.398Z,102002.22
2023-02-26T17:56:39.201Z,101987.75
2023-02-26T18:01:42.519Z,101934.75
2023-02-26T18:06:45.664Z,101986.38
2023-02-26T18:11:48.332Z,101984.81
2023-02-26T18:16:51.275Z,101972.13
2023-02-26T18:21:54.069Z,101978.44
2023-02-26T18:26:56.918Z,101969.03
2023-02-26T18:32:00.820Z,101973.91
2023-02-26T18:37:04.842Z,101969.81
2023-02-26T18:42:08.118Z,101961.22
2023-02-26T18:47:11.806Z,101953.50
2023-02-26T18:52:14.630Z,101954.31
2023-02-26T18:57:17.653Z,101951.53
2023-02-26T19:02:40.915Z,101959.34
2023-02-26T19:07:43.768Z,101942.38
2023-02-26T19:12:46.713Z,101948.44
2023-02-26T19:17:49.504Z,101935.56
2023-02-26T19:22:52.155Z,101898.56
2023-02-26T19:27:56.105Z,101929.41
2023-02-26T19:32:59.033Z,101923.38
2023-02-26T19:38:01.882Z,101923.38
2023-02-26T19:43:04.626Z,101917.03
2023-02-26T19:48:07.331Z,101893.97
2023-02-26T19:53:10.152Z,101903.25
2023-02-26T19:58:14.487Z,101911.09
2023-02-26T20:03:17.354Z,101858.19
2023-02-26T20:08:22.017Z,101874.09
2023-02-26T20:13:30.103Z,101903.66
2023-02-26T20:18:33.422Z,101845.72
2023-02-26T20:23:38.015Z,101898.75
2023-02-26T20:28:41.670Z,101891.13
2023-02-26T20:33:44.390Z,101893.09
2023-02-26T20:38:47.204Z,101891.03
2023-02-26T20:43:49.945Z,101890.69
2023-02-26T20:48:52.614Z,101848.09
2023-02-26T20:53:55.430Z,101837.78
2023-02-26T20:58:58.164Z,101868.75
2023-02-26T21:04:01.262Z,101873.91
2023-02-26T21:09:05.611Z,101868.22
2023-02-26T21:14:10.092Z,101881.34
2023-02-26T21:19:12.931Z,101874.59
2023-02-26T21:24:15.635Z,101835.00
2023-02-26T21:29:18.743Z,101875.09
2023-02-26T21:34:33.400Z,101870.16
2023-02-26T21:39:38.474Z,101876.38
2023-02-26T21:44:41.373Z,101875.28
2023-02-26T21:49:44.574Z,101878.72
2023-02-26T21:54:47.402Z,101865.06
2023-02-26T21:59:50.140Z,101867.72
2023-02-26T22:04:52.825Z,101875.88
2023-02-26T22:09:55.528Z,101861.69
2023-02-26T22:14:58.261Z,101851.94
2023-02-26T22:20:00.971Z,101858.84
2023-02-26T22:25:06.292Z,101869.41
2023-02-26T22:30:09.899Z,101859.25
2023-02-26T22:35:14.266Z,101868.38
2023-02-26T22:40:17.064Z,101863.06
2023-02-26T22:45:20.148Z,101864.66
2023-02-26T22:50:22.853Z,101828.25
2023-02-26T22:55:25.686Z,101856.81
2023-02-26T23:00:29.024Z,101862.50
2023-02-26T23:05:31.858Z,101856.00
2023-02-26T23:10:34.579Z,101873.22
2023-02-26T23:15:37.859Z,101868.16
2023-02-26T23:20:40.632Z,101874.19
2023-02-26T23:25:44.082Z,101877.88
2023-02-26T23:30:46.980Z,101887.53
2023-02-26T23:35:50.063Z,101890.22
2023-02-26T23:40:52.878Z,101881.72
2023-02-26T23:45:55.644Z,101873.47
2023-02-26T23:50:58.368Z,101894.91
2023-02-26T23:56:01.537Z,101855.75
